createdAt,value
2023-04-12T00:01:43.988Z,46.14
2023-04-12T00:04:11.077Z,46.25
2023-04-12T00:06:38.278Z,46.27
2023-04-12T00:09:05.113Z,46.36
2023-04-12T00:11:32.159Z,46.27
2023-04-12T00:13:58.980Z,46.28
2023-04-12T00:16:26.326Z,46.45
2023-04-12T00:18:53.195Z,46.22
2023-04-12T00:21:20.219Z,46.18
2023-04-12T00:23:47.533Z,46.23
2023-04-12T00:26:14.684Z,46.37
2023-04-12T00:28:42.227Z,46.31
2023-04-12T00:31:09.278Z,46.46
2023-04-12T00:33:36.217Z,46.58
2023-04-12T00:36:03.573Z,46.33
2023-04-12T00:38:30.410Z,46.20
2023-04-12T00:40:57.704Z,46.39
2023-04-12T00:43:27.296Z,46.37
2023-04-12T00:45:54.760Z,46.45
2023-04-12T00:48:21.486Z,46.31
2023-04-12T00:50:48.630Z,46.70
2023-04-12T00:53:15.723Z,46.46
2023-04-12T00:55:46.157Z,46.34
2023-04-12T00:58:14.290Z,46.21
2023-04-12T01:00:41.505Z,46.47
2023-04-12T01:03:13.836Z,46.30
2023-04-12T01:05:43.949Z,46.46
2023-04-12T01:08:53.720Z,46.41
2023-04-12T01:11:43.706Z,46.48
2023-04-12T01:14:15.294Z,46.30
2023-04-12T01:16:44.501Z,46.42
2023-04-12T01:19:34.953Z,46.32
2023-04-12T01:22:16.900Z,46.42
2023-04-12T01:24:52.985Z,46.19
2023-04-12T01:27:35.389Z,46.36
2023-04-12T01:30:02.316Z,46.35
2023-04-12T01:32:29.547Z,46.36
2023-04-12T01:34:56.265Z,46.55
2023-04-12T01:37:23.254Z,46.38
2023-04-12T01:39:49.954Z,46.39
2023-04-12T01:42:20.844Z,46.42
2023-04-12T01:44:47.634Z,46.36
2023-04-12T01:47:14.622Z,46.34
2023-04-12T01:49:53.523Z,46.39
2023-04-12T01:52:21.643Z,46.23
2023-04-12T01:54:49.582Z,46.34
2023-04-12T01:57:16.582Z,46.48
2023-04-12T01:59:44.019Z,46.71
2023-04-12T02:02:11.762Z,46.31
2023-04-12T02:04:38.793Z,46.58
2023-04-12T02:07:06.786Z,46.66
2023-04-12T02:09:38.316Z,46.42
2023-04-12T02:12:06.392Z,46.45
2023-04-12T02:14:33.155Z,46.45
2023-04-12T02:17:02.426Z,46.51
2023-04-12T02:19:29.360Z,46.53
2023-04-12T02:21:56.498Z,46.54
2023-04-12T02:24:23.282Z,46.64
2023-04-12T02:26:50.325Z,46.62
2023-04-12T02:29:17.629Z,46.60
2023-04-12T02:31:44.637Z,46.59
2023-04-12T02:34:13.345Z,46.56
2023-04-12T02:36:40.447Z,46.80
2023-04-12T02:39:07.844Z,46.40
2023-04-12T02:41:34.961Z,46.60
2023-04-12T02:44:01.988Z,46.44
2023-04-12T02:46:29.220Z,46.44
2023-04-12T02:48:56.125Z,46.53
2023-04-12T02:51:23.112Z,46.47
2023-04-12T02:53:49.833Z,46.71
2023-04-12T02:56:19.173Z,46.73
2023-04-12T02:58:46.329Z,46.55
2023-04-12T03:01:14.644Z,46.46
2023-04-12T03:03:41.944Z,46.52
2023-04-12T03:06:12.073Z,46.68
2023-04-12T03:08:39.765Z,46.59
2023-04-12T03:11:07.027Z,46.75
2023-04-12T03:13:33.858Z,46.44
2023-04-12T03:16:24.413Z,46.54
2023-04-12T03:18:51.711Z,46.57
2023-04-12T03:21:19.052Z,46.77
2023-04-12T03:23:46.057Z,46.58
2023-04-12T03:26:13.309Z,46.72
2023-04-12T03:28:41.419Z,46.82
2023-04-12T03:31:08.634Z,46.82
2023-04-12T03:33:35.533Z,46.75
2023-04-12T03:36:02.663Z,46.48
2023-04-12T03:38:29.434Z,46.95
2023-04-12T03:40:56.475Z,46.92
2023-04-12T03:43:23.207Z,46.72
2023-04-12T03:45:50.334Z,46.69
2023-04-12T03:48:17.092Z,46.84
2023-04-12T03:50:44.500Z,46.85
2023-04-12T03:53:11.779Z,46.91
2023-04-12T03:55:38.832Z,46.59
2023-04-12T03:58:05.691Z,46.83
2023-04-12T04:00:32.756Z,46.68
2023-04-12T04:03:03.457Z,46.76
2023-04-12T04:05:31.443Z,46.93
2023-04-12T04:08:02.548Z,46.55
2023-04-12T04:10:29.871Z,46.56
2023-04-12T04:12:56.671Z,46.79
2023-04-12T04:15:25.403Z,46.76
2023-04-12T04:17:52.474Z,46.68
2023-04-12T04:20:22.705Z,46.94
2023-04-12T04:22:49.974Z,46.61
2023-04-12T04:25:17.083Z,46.72
2023-04-12T04:27:46.612Z,46.53
2023-04-12T04:30:15.424Z,46.99
2023-04-12T04:32:43.190Z,46.96
2023-04-12T04:35:10.293Z,46.71
2023-04-12T04:37:37.198Z,46.63
2023-04-12T04:40:14.034Z,46.93
2023-04-12T04:42:42.924Z,46.84
2023-04-12T04:45:14.073Z,46.70
2023-04-12T04:47:41.133Z,46.84
2023-04-12T04:50:08.753Z,46.93
2023-04-12T04:52:37.669Z,46.82
2023-04-12T04:55:07.438Z,46.92
2023-04-12T04:57:35.531Z,47.08
2023-04-12T05:00:10.955Z,47.25
2023-04-12T05:02:40.113Z,46.99
2023-04-12T05:05:07.989Z,46.95
2023-04-12T05:07:34.725Z,46.67
2023-04-12T05:10:03.256Z,46.91
2023-04-12T05:12:30.019Z,47.15
2023-04-12T05:15:10.506Z,47.31
2023-04-12T05:17:38.724Z,47.12
2023-04-12T05:20:08.452Z,47.16
2023-04-12T05:22:35.422Z,47.06
2023-04-12T05:25:03.613Z,47.27
2023-04-12T05:27:30.872Z,47.01
2023-04-12T05:29:58.042Z,47.03
2023-04-12T05:32:25.603Z,47.16
2023-04-12T05:34:52.733Z,47.15
2023-04-12T05:37:19.654Z,47.03
2023-04-12T05:39:46.781Z,46.76
2023-04-12T05:42:13.578Z,47.00
2023-04-12T05:44:41.552Z,46.99
2023-04-12T05:47:08.363Z,47.17
2023-04-12T05:49:35.677Z,46.93
2023-04-12T05:52:03.231Z,47.14
2023-04-12T05:54:30.330Z,46.85
2023-04-12T05:56:57.196Z,47.35
2023-04-12T05:59:24.360Z,47.03
2023-04-12T06:01:51.594Z,47.43
2023-04-12T06:04:18.801Z,47.42
2023-04-12T06:06:45.844Z,47.18
2023-04-12T06:09:13.017Z,47.07
2023-04-12T06:11:39.769Z,47.37
2023-04-12T06:14:06.857Z,47.32
2023-04-12T06:16:33.656Z,47.08
2023-04-12T06:19:01.101Z,47.24
2023-04-12T06:21:28.037Z,47.42
2023-04-12T06:23:55.242Z,47.54
2023-04-12T06:26:22.065Z,47.33
2023-04-12T06:28:49.217Z,47.45
2023-04-12T06:31:16.948Z,47.33
2023-04-12T06:33:44.756Z,47.58
2023-04-12T06:36:11.868Z,47.50
2023-04-12T06:38:39.136Z,47.03
2023-04-12T06:41:06.587Z,47.24
2023-04-12T06:43:33.788Z,47.44
2023-04-12T06:46:03.084Z,47.62
2023-04-12T06:48:30.167Z,47.18
2023-04-12T06:50:57.032Z,47.44
2023-04-12T06:53:24.212Z,47.13
2023-04-12T06:55:51.204Z,47.27
2023-04-12T06:58:18.344Z,47.06
2023-04-12T07:00:45.166Z,47.06
2023-04-12T07:03:12.486Z,46.80
2023-04-12T07:05:39.663Z,46.80
2023-04-12T07:08:07.821Z,46.58
2023-04-12T07:10:36.188Z,46.64
2023-04-12T07:13:07.132Z,46.54
2023-04-12T07:15:34.427Z,46.60
2023-04-12T07:18:01.653Z,46.63
2023-04-12T07:20:28.550Z,46.58
2023-04-12T07:22:55.738Z,46.40
2023-04-12T07:25:22.743Z,46.34
2023-04-12T07:27:51.675Z,46.39
2023-04-12T07:30:18.869Z,46.19
2023-04-12T07:32:46.130Z,45.98
2023-04-12T07:35:13.047Z,46.10
2023-04-12T07:37:40.277Z,46.00
2023-04-12T07:40:07.619Z,46.11
2023-04-12T07:42:34.783Z,46.10
2023-04-12T07:45:01.678Z,45.91
2023-04-12T07:47:28.913Z,45.89
2023-04-12T07:49:56.077Z,45.69
2023-04-12T07:52:24.408Z,45.84
2023-04-12T07:54:51.296Z,45.81
2023-04-12T07:57:18.459Z,45.72
2023-04-12T07:59:45.292Z,45.60
2023-04-12T08:02:13.010Z,45.57
2023-04-12T08:04:44.329Z,45.30
2023-04-12T08:07:11.727Z,45.53
2023-04-12T08:09:38.507Z,45.50
2023-04-12T08:12:05.941Z,45.79
2023-04-12T08:14:32.691Z,45.29
2023-04-12T08:16:59.847Z,45.22
2023-04-12T08:19:27.297Z,45.13
2023-04-12T08:21:54.539Z,45.17
2023-04-12T08:24:21.364Z,45.34
2023-04-12T08:26:48.515Z,45.08
2023-04-12T08:29:15.642Z,45.08
2023-04-12T08:31:42.786Z,44.82
2023-04-12T08:34:09.610Z,45.12
2023-04-12T08:36:36.757Z,44.77
2023-04-12T08:39:03.733Z,44.76
2023-04-12T08:41:30.922Z,44.58
2023-04-12T08:43:57.947Z,44.35
2023-04-12T08:46:26.351Z,44.48
2023-04-12T08:48:57.759Z,44.69
2023-04-12T08:51:24.869Z,44.74
2023-04-12T08:53:52.910Z,44.49
2023-04-12T08:56:20.023Z,44.40
2023-04-12T08:58:49.063Z,44.27
2023-04-12T09:01:16.865Z,44.36
2023-04-12T09:03:44.264Z,44.21
2023-04-12T09:06:12.362Z,44.15
2023-04-12T09:08:55.697Z,44.69
2023-04-12T09:11:27.376Z,43.86
2023-04-12T09:13:55.528Z,44.03
2023-04-12T09:16:41.733Z,43.75
2023-04-12T09:19:08.926Z,43.91
2023-04-12T09:21:36.546Z,43.98
2023-04-12T09:24:11.842Z,44.04
2023-04-12T09:26:40.732Z,44.09
2023-04-12T09:29:07.604Z,44.02
2023-04-12T09:31:34.741Z,43.94
2023-04-12T09:34:08.771Z,43.79
2023-04-12T09:36:40.017Z,43.53
2023-04-12T09:39:07.536Z,43.54
2023-04-12T09:41:34.737Z,43.05
2023-04-12T09:44:01.740Z,43.61
2023-04-12T09:46:29.193Z,43.57
2023-04-12T09:48:58.973Z,43.55
2023-04-12T09:51:28.631Z,43.79
2023-04-12T09:54:03.282Z,43.64
2023-04-12T09:56:32.445Z,43.17
2023-04-12T09:59:04.423Z,43.08
2023-04-12T10:01:37.014Z,43.21
2023-04-12T10:04:05.160Z,42.92
2023-04-12T10:06:33.149Z,42.82
2023-04-12T10:09:03.050Z,42.64
2023-04-12T10:11:30.257Z,42.80
2023-04-12T10:13:57.442Z,42.99
2023-04-12T10:16:25.322Z,43.26
2023-04-12T10:18:52.614Z,42.39
2023-04-12T10:21:19.703Z,42.80
2023-04-12T10:23:47.306Z,42.94
2023-04-12T10:26:15.484Z,43.04
2023-04-12T10:28:46.860Z,42.68
2023-04-12T10:31:30.602Z,42.70
2023-04-12T10:33:57.502Z,42.74
2023-04-12T10:36:54.339Z,42.63
2023-04-12T10:39:38.124Z,43.08
2023-04-12T10:42:27.428Z,42.56
2023-04-12T10:44:58.752Z,42.40
2023-04-12T10:47:49.296Z,42.24
2023-04-12T10:50:30.458Z,42.24
2023-04-12T10:53:13.087Z,42.23
2023-04-12T10:55:40.164Z,42.08
2023-04-12T10:58:07.226Z,42.26
2023-04-12T11:00:55.888Z,41.97
2023-04-12T11:03:23.298Z,42.40
2023-04-12T11:06:16.119Z,42.27
2023-04-12T11:08:50.968Z,42.35
2023-04-12T11:11:22.710Z,41.96
2023-04-12T11:13:54.747Z,41.85
2023-04-12T11:16:21.594Z,41.99
2023-04-12T11:18:48.785Z,42.01
2023-04-12T11:21:15.631Z,42.21
2023-04-12T11:23:42.854Z,41.78
2023-04-12T11:26:10.767Z,41.65
2023-04-12T11:28:37.958Z,41.81
2023-04-12T11:31:06.111Z,42.16
2023-04-12T11:33:37.221Z,41.27
2023-04-12T11:36:14.593Z,41.65
2023-04-12T11:38:41.909Z,41.46
2023-04-12T11:41:09.130Z,41.89
2023-04-12T11:43:38.613Z,41.42
2023-04-12T11:46:05.632Z,40.30
2023-04-12T11:48:33.290Z,40.99
2023-04-12T11:51:10.792Z,40.54
2023-04-12T11:53:39.053Z,40.30
2023-04-12T11:56:06.441Z,39.89
2023-04-12T11:58:33.926Z,39.86
2023-04-12T12:01:00.912Z,39.81
2023-04-12T12:03:28.501Z,40.18
2023-04-12T12:05:56.426Z,39.92
2023-04-12T12:08:24.449Z,40.04
2023-04-12T12:11:06.429Z,40.28
2023-04-12T12:13:47.743Z,40.48
2023-04-12T12:16:15.030Z,39.77
2023-04-12T12:18:50.271Z,40.39
2023-04-12T12:21:19.302Z,39.71
2023-04-12T12:23:46.670Z,40.13
2023-04-12T12:26:24.456Z,39.94
2023-04-12T12:28:55.635Z,40.31
2023-04-12T12:31:23.879Z,40.10
2023-04-12T12:33:59.271Z,40.31
2023-04-12T12:36:33.520Z,39.84
2023-04-12T12:39:07.734Z,39.13
2023-04-12T12:41:34.615Z,39.17
2023-04-12T12:44:01.767Z,39.00
2023-04-12T12:46:40.661Z,38.82
2023-04-12T12:49:17.061Z,39.09
2023-04-12T12:51:44.039Z,39.45
2023-04-12T12:54:11.222Z,39.31
2023-04-12T12:56:38.086Z,39.26
2023-04-12T12:59:05.252Z,39.41
2023-04-12T13:01:32.162Z,39.48
2023-04-12T13:03:59.508Z,39.01
2023-04-12T13:06:28.135Z,38.91
2023-04-12T13:08:55.659Z,38.96
2023-04-12T13:11:22.771Z,38.37
2023-04-12T13:13:49.885Z,38.30
2023-04-12T13:16:16.885Z,38.67
2023-04-12T13:18:44.351Z,38.67
2023-04-12T13:21:11.323Z,38.86
2023-04-12T13:23:38.430Z,39.24
2023-04-12T13:26:05.885Z,39.01
2023-04-12T13:28:32.948Z,39.27
2023-04-12T13:30:59.745Z,39.42
2023-04-12T13:33:27.155Z,39.17
2023-04-12T13:35:54.005Z,39.48
2023-04-12T13:38:21.336Z,39.47
2023-04-12T13:40:48.163Z,39.55
2023-04-12T13:43:15.394Z,39.19
2023-04-12T13:45:42.191Z,39.13
2023-04-12T13:48:09.517Z,39.61
2023-04-12T13:50:36.638Z,39.42
2023-04-12T13:53:03.734Z,39.17
2023-04-12T13:55:30.500Z,39.48
2023-04-12T13:57:57.639Z,39.43
2023-04-12T14:00:24.560Z,39.65
2023-04-12T14:02:51.904Z,39.70
2023-04-12T14:05:18.884Z,39.41
2023-04-12T14:07:47.943Z,39.73
2023-04-12T14:10:14.852Z,39.96
2023-04-12T14:12:41.889Z,39.47
2023-04-12T14:15:09.149Z,39.79
2023-04-12T14:17:36.420Z,39.49
2023-04-12T14:20:06.429Z,40.25
2023-04-12T14:22:33.619Z,39.89
2023-04-12T14:25:00.406Z,39.77
2023-04-12T14:27:27.489Z,39.28
2023-04-12T14:29:54.547Z,40.22
2023-04-12T14:32:21.669Z,39.95
2023-04-12T14:34:48.485Z,40.29
2023-04-12T14:37:16.244Z,40.03
2023-04-12T14:39:44.389Z,39.85
2023-04-12T14:42:11.878Z,40.02
2023-04-12T14:44:38.724Z,39.96
2023-04-12T14:47:06.053Z,39.89
2023-04-12T14:49:33.566Z,39.85
2023-04-12T14:52:01.714Z,40.05
2023-04-12T14:54:28.576Z,39.75
2023-04-12T14:56:56.835Z,39.79
2023-04-12T14:59:24.215Z,39.83
2023-04-12T15:01:53.385Z,39.77
2023-04-12T15:04:20.651Z,39.65
2023-04-12T15:06:47.782Z,40.36
2023-04-12T15:09:15.718Z,40.33
2023-04-12T15:11:46.579Z,40.44
2023-04-12T15:14:19.945Z,40.23
2023-04-12T15:16:49.272Z,40.40
2023-04-12T15:19:20.872Z,40.37
2023-04-12T15:21:51.170Z,40.25
2023-04-12T15:24:18.991Z,40.22
2023-04-12T15:26:48.441Z,40.46
2023-04-12T15:29:16.528Z,40.36
2023-04-12T15:31:43.926Z,40.76
2023-04-12T15:34:11.578Z,40.99
2023-04-12T15:36:40.600Z,40.48
2023-04-12T15:39:07.432Z,40.30
2023-04-12T15:41:37.281Z,40.76
2023-04-12T15:44:08.184Z,40.67
2023-04-12T15:46:35.860Z,40.60
2023-04-12T15:49:02.961Z,40.63
2023-04-12T15:51:30.278Z,40.32
2023-04-12T15:53:57.534Z,40.52
2023-04-12T15:56:25.517Z,40.38
2023-04-12T15:58:53.099Z,40.21
2023-04-12T16:01:20.278Z,40.56
2023-04-12T16:03:49.220Z,40.89
2023-04-12T16:06:19.935Z,41.01
2023-04-12T16:08:48.033Z,41.07
2023-04-12T16:11:16.787Z,40.65
2023-04-12T16:13:45.472Z,40.29
2023-04-12T16:16:13.565Z,40.81
2023-04-12T16:18:41.505Z,40.57
2023-04-12T16:21:09.128Z,40.93
2023-04-12T16:23:39.258Z,41.00
2023-04-12T16:26:06.604Z,40.94
2023-04-12T16:28:33.670Z,41.45
2023-04-12T16:31:01.050Z,41.35
2023-04-12T16:33:28.117Z,41.34
2023-04-12T16:35:55.597Z,41.21
2023-04-12T16:38:22.516Z,41.71
2023-04-12T16:40:49.758Z,41.37
2023-04-12T16:43:17.105Z,41.45
2023-04-12T16:45:46.305Z,40.85
2023-04-12T16:48:16.039Z,41.01
2023-04-12T16:50:44.951Z,41.12
2023-04-12T16:53:12.241Z,41.09
2023-04-12T16:55:43.807Z,41.50
2023-04-12T16:58:11.418Z,40.30
2023-04-12T17:00:39.081Z,40.19
2023-04-12T17:03:07.289Z,41.08
2023-04-12T17:05:34.555Z,40.38
2023-04-12T17:08:03.252Z,40.48
2023-04-12T17:10:30.437Z,41.28
2023-04-12T17:13:01.871Z,41.72
2023-04-12T17:15:29.492Z,41.13
2023-04-12T17:18:11.922Z,41.51
2023-04-12T17:20:39.077Z,41.21
2023-04-12T17:23:07.334Z,41.00
2023-04-12T17:25:35.111Z,41.70
2023-04-12T17:28:02.206Z,41.84
2023-04-12T17:30:29.421Z,42.06
2023-04-12T17:32:56.513Z,41.52
2023-04-12T17:35:23.792Z,41.46
2023-04-12T17:37:50.729Z,41.87
2023-04-12T17:40:18.410Z,41.62
2023-04-12T17:42:45.350Z,41.42
2023-04-12T17:45:13.960Z,40.99
2023-04-12T17:47:41.554Z,40.96
2023-04-12T17:50:12.135Z,41.48
2023-04-12T17:52:39.066Z,41.57
2023-04-12T17:55:07.519Z,41.07
2023-04-12T17:57:34.550Z,41.31
2023-04-12T18:00:01.954Z,41.39
2023-04-12T18:02:29.019Z,41.93
2023-04-12T18:04:56.502Z,41.69
2023-04-12T18:07:23.625Z,41.82
2023-04-12T18:09:51.364Z,41.64
2023-04-12T18:12:18.469Z,41.60
2023-04-12T18:14:45.646Z,41.90
2023-04-12T18:17:12.518Z,41.65
2023-04-12T18:19:39.907Z,41.63
2023-04-12T18:22:06.823Z,41.81
2023-04-12T18:24:35.409Z,41.56
2023-04-12T18:27:04.445Z,41.52
2023-04-12T18:29:32.780Z,41.29
2023-04-12T18:32:00.136Z,41.34
2023-04-12T18:34:27.611Z,40.94
2023-04-12T18:36:54.508Z,41.18
2023-04-12T18:39:23.433Z,41.51
2023-04-12T18:41:50.411Z,41.10
2023-04-12T18:44:19.860Z,41.19
2023-04-12T18:46:46.861Z,40.94
2023-04-12T18:49:14.475Z,41.28
2023-04-12T18:51:42.838Z,41.18
2023-04-12T18:54:15.123Z,41.42
2023-04-12T18:56:44.956Z,41.50
2023-04-12T18:59:17.547Z,41.54
2023-04-12T19:01:45.607Z,41.55
2023-04-12T19:04:16.398Z,41.76
2023-04-12T19:06:45.246Z,41.85
2023-04-12T19:09:13.240Z,41.66
2023-04-12T19:11:40.899Z,41.87
2023-04-12T19:14:08.841Z,41.63
2023-04-12T19:16:36.830Z,41.44
2023-04-12T19:19:04.853Z,41.03
2023-04-12T19:21:33.050Z,41.20
2023-04-12T19:24:00.927Z,41.23
2023-04-12T19:26:30.282Z,41.06
2023-04-12T19:28:59.038Z,41.31
2023-04-12T19:31:26.673Z,41.37
2023-04-12T19:33:57.822Z,41.46
2023-04-12T19:36:25.790Z,41.31
2023-04-12T19:38:53.787Z,41.08
2023-04-12T19:41:21.787Z,41.06
2023-04-12T19:43:50.487Z,41.05
2023-04-12T19:46:18.335Z,41.34
2023-04-12T19:48:46.615Z,40.85
2023-04-12T19:51:15.418Z,41.08
2023-04-12T19:53:43.087Z,41.17
2023-04-12T19:56:12.835Z,41.14
2023-04-12T19:58:41.665Z,40.95
2023-04-12T20:01:09.924Z,41.21
2023-04-12T20:03:38.876Z,40.91
2023-04-12T20:06:06.360Z,40.93
2023-04-12T20:08:33.758Z,41.02
2023-04-12T20:11:01.925Z,41.19
2023-04-12T20:13:30.849Z,41.09
2023-04-12T20:15:57.893Z,41.31
2023-04-12T20:18:26.182Z,41.16
2023-04-12T20:20:53.291Z,41.36
2023-04-12T20:23:20.697Z,41.22
2023-04-12T20:25:49.045Z,41.25
2023-04-12T20:28:16.361Z,41.06
2023-04-12T20:30:43.364Z,41.24
2023-04-12T20:33:10.514Z,41.48
2023-04-12T20:35:37.690Z,41.56
2023-04-12T20:38:05.265Z,41.48
2023-04-12T20:40:32.246Z,41.44
2023-04-12T20:42:59.744Z,41.59
2023-04-12T20:45:27.263Z,41.51
2023-04-12T20:47:54.404Z,41.62
2023-04-12T20:50:23.016Z,41.64
2023-04-12T20:52:51.937Z,41.82
2023-04-12T20:55:19.017Z,41.74
2023-04-12T20:57:46.082Z,41.52
2023-04-12T21:00:23.745Z,41.46
2023-04-12T21:02:51.028Z,41.47
2023-04-12T21:05:17.950Z,41.55
2023-04-12T21:07:46.975Z,41.49
2023-04-12T21:10:14.918Z,41.76
2023-04-12T21:12:42.847Z,41.69
2023-04-12T21:15:11.836Z,41.58
2023-04-12T21:17:39.137Z,41.77
2023-04-12T21:20:13.733Z,41.92
2023-04-12T21:22:42.090Z,42.19
2023-04-12T21:25:10.465Z,41.93
2023-04-12T21:27:37.509Z,42.11
2023-04-12T21:30:04.731Z,41.72
2023-04-12T21:32:32.570Z,41.71
2023-04-12T21:35:00.114Z,41.91
2023-04-12T21:37:27.240Z,42.04
2023-04-12T21:39:54.047Z,42.37
2023-04-12T21:42:21.158Z,42.05
2023-04-12T21:44:47.955Z,42.08
2023-04-12T21:47:15.285Z,42.28
2023-04-12T21:49:42.094Z,42.64
2023-04-12T21:52:09.178Z,42.16
2023-04-12T21:54:37.065Z,42.18
2023-04-12T21:57:04.719Z,42.12
2023-04-12T21:59:31.504Z,42.28
2023-04-12T22:01:58.676Z,42.29
2023-04-12T22:04:25.615Z,42.30
2023-04-12T22:06:52.966Z,42.41
2023-04-12T22:09:20.346Z,42.31
2023-04-12T22:11:49.120Z,42.38
2023-04-12T22:14:15.985Z,42.44
2023-04-12T22:16:43.184Z,42.38
2023-04-12T22:19:10.035Z,42.57
2023-04-12T22:21:37.363Z,42.41
2023-04-12T22:24:04.212Z,42.38
2023-04-12T22:26:31.641Z,42.64
2023-04-12T22:28:58.454Z,42.51
2023-04-12T22:31:26.190Z,42.51
2023-04-12T22:33:55.283Z,42.61
2023-04-12T22:36:28.491Z,42.76
2023-04-12T22:38:56.066Z,42.64
2023-04-12T22:41:23.156Z,42.77
2023-04-12T22:43:50.096Z,42.77
2023-04-12T22:46:18.106Z,42.50
2023-04-12T22:48:47.720Z,42.43
2023-04-12T22:51:15.247Z,42.70
2023-04-12T22:53:43.391Z,43.00
2023-04-12T22:56:11.307Z,42.77
2023-04-12T22:58:40.191Z,42.88
2023-04-12T23:01:07.591Z,42.90
2023-04-12T23:03:34.569Z,42.84
2023-04-12T23:06:02.051Z,43.05
2023-04-12T23:08:29.291Z,42.76
2023-04-12T23:11:02.985Z,42.83
2023-04-12T23:13:35.642Z,42.84
2023-04-12T23:16:03.718Z,42.90
2023-04-12T23:18:30.666Z,43.14
2023-04-12T23:20:57.704Z,43.04
2023-04-12T23:23:27.241Z,43.15
2023-04-12T23:25:54.531Z,43.10
2023-04-12T23:28:22.055Z,43.02
2023-04-12T23:30:49.775Z,43.18
2023-04-12T23:33:20.296Z,43.27
2023-04-12T23:35:49.507Z,42.93
2023-04-12T23:38:23.052Z,43.12
2023-04-12T23:40:53.895Z,43.06
2023-04-12T23:43:21.704Z,43.13
2023-04-12T23:45:48.921Z,42.79
2023-04-12T23:48:16.670Z,43.31
2023-04-12T23:50:48.148Z,43.05
2023-04-12T23:53:18.335Z,43.05
2023-04-12T23:55:50.157Z,43.02
2023-04-12T23:58:16.970Z,43.12
